Cruise inventory

FRV Clupea 1792C

Cruise summary report

Cruise Info. 
Ship name (ship code)FRV Clupea (74CU)
Cruise identifier1792C
Cruise period1992-11-19 — 1992-12-03
StatusCompleted
Port of departureFraserburgh, United Kingdom
Port of returnFraserburgh, United Kingdom
ObjectivesTo survey 14 lochs in the Outer Hebrides. To develop and test ROSIE. To develop methods of deployment using new A frame on Clupea's stern.
Chief scientistBill Turrell (Scottish Office Agriculture and Fisheries Department Aberdeen Marine Laboratory)
Ocean/sea areas 
GeneralInner Seas off the West Coast of Scotland
SpecificOuter Hebrides, Scotland, Sea Lochs
Measurements 
Physical oceanography 
CTD stationsQuantity: number of stations = 110
Description: 2 with S only
Other physical oceanographic measurementsDescription: tests Rosette sampler, rosie
Chemical oceanography 
PhosphateQuantity: number of stations = 111
NitrateQuantity: number of stations = 111
AmmoniaQuantity: number of stations = 111
SilicateQuantity: number of stations = 111
Data held at BODC 
Series/Profiles 
108  CTD/STD cast
Density of the water column
Electrical conductivity of the water column
Vertical spatial coordinates
Salinity of the water column
Temperature of the water column
Density of the water column
Electrical conductivity of the water column
Vertical spatial coordinates
Salinity of the water column
Temperature of the water column

BODC idDate/TimeLocationDoc.
4020591992-11-21 14:50 58° 27' 24" N  4° 44' 16" W  View metadata report for BODC series reference number 402059
4020601992-11-21 15:13 58° 28' 19" N  4° 42' 56" W  View metadata report for BODC series reference number 402060
4020721992-11-21 15:32 58° 29' 10" N  4° 41' 23" W  View metadata report for BODC series reference number 402072
4020841992-11-21 15:56 58° 30' 6" N  4° 40' 25" W  View metadata report for BODC series reference number 402084
4020961992-11-21 16:19 58° 31' 5" N  4° 39' 29" W  View metadata report for BODC series reference number 402096
4021031992-11-21 16:45 58° 31' 50" N  4° 38' 37" W  View metadata report for BODC series reference number 402103
4021151992-11-21 17:07 58° 32' 17" N  4° 37' 32" W  View metadata report for BODC series reference number 402115
4021271992-11-21 17:31 58° 33' 17" N  4° 37' 19" W  View metadata report for BODC series reference number 402127
4021391992-11-21 17:58 58° 34' 9" N  4° 37' 40" W  View metadata report for BODC series reference number 402139
4021401992-11-21 18:21 58° 34' 59" N  4° 37' 59" W  View metadata report for BODC series reference number 402140
4021521992-11-22 09:07 58° 12' 21" N  6° 52' 13" W  View metadata report for BODC series reference number 402152
4021641992-11-22 09:25 58° 12' 12" N  6° 50' 52" W  View metadata report for BODC series reference number 402164
4021761992-11-22 09:41 58° 11' 49" N  6° 51' 20" W  View metadata report for BODC series reference number 402176
4021881992-11-22 10:04 58° 11' 46" N  6° 52' 40" W  View metadata report for BODC series reference number 402188
4022071992-11-22 10:21 58° 11' 23" N  6° 52' 11" W  View metadata report for BODC series reference number 402207
4022191992-11-22 10:32 58° 11' 8" N  6° 51' 55" W  View metadata report for BODC series reference number 402219
4022201992-11-22 10:58 58° 11' 27" N  6° 54' 0" W  View metadata report for BODC series reference number 402220
4022321992-11-22 11:18 58° 12' 7" N  6° 54' 52" W  View metadata report for BODC series reference number 402232
4022441992-11-22 11:35 58° 12' 0" N  6° 55' 59" W  View metadata report for BODC series reference number 402244
4022561992-11-22 12:01 58° 12' 13" N  6° 53' 46" W  View metadata report for BODC series reference number 402256
4022681992-11-22 12:20 58° 12' 53" N  6° 54' 7" W  View metadata report for BODC series reference number 402268
4022811992-11-22 12:41 58° 13' 41" N  6° 54' 0" W  View metadata report for BODC series reference number 402281
4022931992-11-22 12:58 58° 14' 26" N  6° 54' 26" W  View metadata report for BODC series reference number 402293
4023001992-11-22 13:16 58° 15' 0" N  6° 55' 59" W  View metadata report for BODC series reference number 402300
4023121992-11-22 14:53 58° 12' 28" N  6° 46' 4" W  View metadata report for BODC series reference number 402312
4023241992-11-22 15:11 58° 13' 3" N  6° 45' 46" W  View metadata report for BODC series reference number 402324
4023361992-11-22 15:27 58° 13' 28" N  6° 46' 43" W  View metadata report for BODC series reference number 402336
4023481992-11-22 16:05 58° 16' 40" N  6° 47' 49" W  View metadata report for BODC series reference number 402348
4023611992-11-22 16:17 58° 16' 37" N  6° 48' 31" W  View metadata report for BODC series reference number 402361
4023731992-11-22 16:30 58° 16' 34" N  6° 49' 9" W  View metadata report for BODC series reference number 402373
4023851992-11-22 17:02 58° 13' 59" N  6° 47' 43" W  View metadata report for BODC series reference number 402385
4023971992-11-22 17:22 58° 14' 37" N  6° 48' 24" W  View metadata report for BODC series reference number 402397
4024041992-11-22 17:38 58° 15' 7" N  6° 49' 23" W  View metadata report for BODC series reference number 402404
4024161992-11-22 17:53 58° 15' 49" N  6° 49' 45" W  View metadata report for BODC series reference number 402416
4024281992-11-22 18:09 58° 16' 31" N  6° 49' 59" W  View metadata report for BODC series reference number 402428
4024411992-11-22 18:32 58° 16' 59" N  6° 50' 59" W  View metadata report for BODC series reference number 402441
4024531992-11-22 18:52 58° 17' 48" N  6° 51' 11" W  View metadata report for BODC series reference number 402453
4024651992-11-23 13:15 58° 14' 17" N  6° 17' 12" W  View metadata report for BODC series reference number 402465
4024771992-11-23 13:39 58° 15' 13" N  6° 14' 48" W  View metadata report for BODC series reference number 402477
4024891992-11-23 14:15 58° 17' 19" N  6° 10' 54" W  View metadata report for BODC series reference number 402489
4024901992-11-24 10:59 58° 0' 18" N  6° 33' 23" W  View metadata report for BODC series reference number 402490
4025081992-11-24 11:12 58° 0' 19" N  6° 32' 48" W  View metadata report for BODC series reference number 402508
4025211992-11-24 11:30 58° 0' 11" N  6° 31' 48" W  View metadata report for BODC series reference number 402521
4025331992-11-24 11:46 58° 0' 15" N  6° 30' 31" W  View metadata report for BODC series reference number 402533
4025451992-11-24 12:06 58° 0' 20" N  6° 29' 7" W  View metadata report for BODC series reference number 402545
4025571992-11-25 08:29 58° 0' 11" N  6° 27' 47" W  View metadata report for BODC series reference number 402557
4025691992-11-25 10:24 57° 57' 15" N  6° 38' 10" W  View metadata report for BODC series reference number 402569
4025701992-11-25 10:47 57° 56' 30" N  6° 37' 8" W  View metadata report for BODC series reference number 402570
4025821992-11-25 11:04 57° 55' 39" N  6° 36' 30" W  View metadata report for BODC series reference number 402582
4025941992-11-25 11:24 57° 55' 10" N  6° 36' 5" W  View metadata report for BODC series reference number 402594
4026011992-11-25 11:50 57° 54' 26" N  6° 35' 21" W  View metadata report for BODC series reference number 402601
4026131992-11-25 13:00 58° 0' 47" N  6° 44' 45" W  View metadata report for BODC series reference number 402613
4026251992-11-25 13:20 57° 59' 15" N  6° 43' 50" W  View metadata report for BODC series reference number 402625
4026371992-11-25 13:46 57° 58' 7" N  6° 42' 42" W  View metadata report for BODC series reference number 402637
4026491992-11-25 14:07 57° 57' 11" N  6° 41' 38" W  View metadata report for BODC series reference number 402649
4026501992-11-25 14:29 57° 56' 13" N  6° 40' 42" W  View metadata report for BODC series reference number 402650
4026621992-11-25 14:52 57° 55' 22" N  6° 39' 49" W  View metadata report for BODC series reference number 402662
4026741992-11-25 15:19 57° 54' 17" N  6° 38' 23" W  View metadata report for BODC series reference number 402674
4026861992-11-26 15:21 57° 49' 59" N  5° 4' 41" W  View metadata report for BODC series reference number 402686
4026981992-11-26 15:40 57° 51' 4" N  5° 5' 38" W  View metadata report for BODC series reference number 402698
4027051992-11-26 16:38 57° 52' 24" N  5° 6' 55" W  View metadata report for BODC series reference number 402705
4027171992-11-26 17:02 57° 53' 25" N  5° 9' 0" W  View metadata report for BODC series reference number 402717
4027291992-11-26 17:25 57° 53' 24" N  5° 9' 46" W  View metadata report for BODC series reference number 402729
4027301992-11-26 17:59 57° 53' 59" N  5° 11' 12" W  View metadata report for BODC series reference number 402730
4027421992-11-26 18:20 57° 54' 39" N  5° 12' 20" W  View metadata report for BODC series reference number 402742
4027541992-11-26 18:45 57° 55' 18" N  5° 13' 49" W  View metadata report for BODC series reference number 402754
4027661992-11-27 09:53 57° 26' 51" N  6° 36' 8" W  View metadata report for BODC series reference number 402766
4027781992-11-27 10:09 57° 27' 9" N  6° 37' 1" W  View metadata report for BODC series reference number 402778
4027911992-11-27 10:29 57° 27' 22" N  6° 37' 40" W  View metadata report for BODC series reference number 402791
4028091992-11-27 10:55 57° 28' 40" N  6° 38' 49" W  View metadata report for BODC series reference number 402809
4028101992-11-27 11:55 57° 29' 53" N  6° 34' 6" W  View metadata report for BODC series reference number 402810
4028221992-11-27 12:13 57° 30' 38" N  6° 34' 56" W  View metadata report for BODC series reference number 402822
4028341992-11-27 12:37 57° 31' 34" N  6° 36' 38" W  View metadata report for BODC series reference number 402834
4028461992-11-27 13:01 57° 32' 8" N  6° 38' 44" W  View metadata report for BODC series reference number 402846
4028581992-11-27 13:25 57° 32' 8" N  6° 41' 13" W  View metadata report for BODC series reference number 402858
4028711992-11-27 13:57 57° 30' 0" N  6° 40' 10" W  View metadata report for BODC series reference number 402871
4028831992-11-28 08:55 57° 29' 23" N  6° 19' 51" W  View metadata report for BODC series reference number 402883
4028951992-11-28 09:12 57° 30' 7" N  6° 20' 50" W  View metadata report for BODC series reference number 402895
4029021992-11-28 09:29 57° 30' 40" N  6° 22' 13" W  View metadata report for BODC series reference number 402902
4029141992-11-28 09:50 57° 31' 34" N  6° 22' 50" W  View metadata report for BODC series reference number 402914
4029261992-11-28 10:29 57° 29' 10" N  6° 26' 31" W  View metadata report for BODC series reference number 402926
4029381992-11-28 10:46 57° 29' 49" N  6° 25' 49" W  View metadata report for BODC series reference number 402938
4029511992-11-28 11:04 57° 30' 58" N  6° 25' 7" W  View metadata report for BODC series reference number 402951
4029631992-11-28 11:25 57° 31' 43" N  6° 25' 40" W  View metadata report for BODC series reference number 402963
4029751992-11-28 11:51 57° 32' 44" N  6° 24' 24" W  View metadata report for BODC series reference number 402975
4029871992-11-28 12:31 57° 34' 37" N  6° 24' 43" W  View metadata report for BODC series reference number 402987
4029991992-11-28 13:08 57° 35' 59" N  6° 27' 47" W  View metadata report for BODC series reference number 402999
4030021992-11-28 13:37 57° 37' 48" N  6° 29' 1" W  View metadata report for BODC series reference number 403002
4030141992-11-28 15:28 57° 49' 46" N  6° 41' 13" W  View metadata report for BODC series reference number 403014
4030261992-11-28 15:54 57° 51' 13" N  6° 42' 56" W  View metadata report for BODC series reference number 403026
4030381992-11-28 16:19 57° 51' 31" N  6° 42' 15" W  View metadata report for BODC series reference number 403038
4030511992-11-28 17:51 57° 53' 34" N  6° 47' 4" W  View metadata report for BODC series reference number 403051
4030631992-11-29 08:41 57° 53' 7" N  6° 44' 48" W  View metadata report for BODC series reference number 403063
4030751992-11-29 09:09 57° 52' 49" N  6° 43' 5" W  View metadata report for BODC series reference number 403075
4030871992-11-29 09:31 57° 52' 46" N  6° 45' 31" W  View metadata report for BODC series reference number 403087
4030991992-11-29 09:53 57° 51' 55" N  6° 44' 53" W  View metadata report for BODC series reference number 403099
4031061992-11-29 10:14 57° 52' 30" N  6° 46' 43" W  View metadata report for BODC series reference number 403106
4031181992-11-29 11:03 57° 52' 45" N  6° 41' 1" W  View metadata report for BODC series reference number 403118
4031311992-11-29 13:33 58° 2' 42" N  6° 24' 25" W  View metadata report for BODC series reference number 403131
4031431992-11-29 13:53 58° 2' 42" N  6° 22' 59" W  View metadata report for BODC series reference number 403143
4031551992-11-30 08:11 58° 6' 0" N  6° 27' 40" W  View metadata report for BODC series reference number 403155
4031671992-11-30 08:45 58° 5' 50" N  6° 28' 47" W  View metadata report for BODC series reference number 403167
4031791992-11-30 09:04 58° 5' 49" N  6° 29' 49" W  View metadata report for BODC series reference number 403179
4031801992-11-30 09:22 58° 5' 40" N  6° 30' 52" W  View metadata report for BODC series reference number 403180
4031921992-11-30 09:46 58° 6' 25" N  6° 27' 0" W  View metadata report for BODC series reference number 403192
4032111992-11-30 10:08 58° 6' 56" N  6° 26' 1" W  View metadata report for BODC series reference number 403211
4032231992-11-30 10:25 58° 7' 16" N  6° 24' 14" W  View metadata report for BODC series reference number 403223
4032351992-11-30 10:47 58° 7' 31" N  6° 22' 20" W  View metadata report for BODC series reference number 403235